createdAt,value
2018-03-27T00:01:00.716Z,78.52
2018-03-27T00:03:28.337Z,78.62
2018-03-27T00:05:56.040Z,78.64
2018-03-27T00:08:23.710Z,78.71
2018-03-27T00:10:51.347Z,78.66
2018-03-27T00:13:18.974Z,78.62
2018-03-27T00:15:47.630Z,78.71
2018-03-27T00:18:15.253Z,78.95
2018-03-27T00:20:42.868Z,79.90
2018-03-27T00:23:10.556Z,80.53
2018-03-27T00:25:38.181Z,81.69
2018-03-27T00:28:17.614Z,80.73
2018-03-27T00:30:56.824Z,80.24
2018-03-27T00:33:36.271Z,79.92
2018-03-27T00:36:15.651Z,79.04
2018-03-27T00:38:54.945Z,79.32
2018-03-27T00:44:32.526Z,79.39
2018-03-27T00:47:00.166Z,79.66
2018-03-27T00:49:27.742Z,79.84
2018-03-27T00:51:55.383Z,80.16
2018-03-27T00:54:23.030Z,80.09
2018-03-27T00:56:50.613Z,80.46
2018-03-27T00:59:18.733Z,80.28
2018-03-27T01:01:47.430Z,81.25
2018-03-27T01:04:15.009Z,81.12
2018-03-27T01:06:42.641Z,81.10
2018-03-27T01:09:10.252Z,80.85
2018-03-27T01:11:37.844Z,80.87
2018-03-27T01:14:05.497Z,80.77
2018-03-27T01:16:33.083Z,80.76
2018-03-27T01:19:00.678Z,80.89
2018-03-27T01:21:29.417Z,80.67
2018-03-27T01:23:57.011Z,80.74
2018-03-27T01:26:24.611Z,81.64
2018-03-27T01:28:52.246Z,81.95
2018-03-27T01:31:19.829Z,82.24
2018-03-27T01:33:47.415Z,82.36
2018-03-27T01:36:15.047Z,82.28
2018-03-27T01:38:42.641Z,82.09
2018-03-27T01:41:10.214Z,81.93
2018-03-27T01:43:37.841Z,81.70
2018-03-27T01:46:05.500Z,81.30
2018-03-27T01:48:33.087Z,81.09
2018-03-27T01:51:00.726Z,80.95
2018-03-27T01:53:28.324Z,80.54
2018-03-27T01:55:55.922Z,80.21
2018-03-27T01:58:23.548Z,79.94
2018-03-27T02:00:51.164Z,79.52
2018-03-27T02:03:18.768Z,79.72
2018-03-27T02:05:46.473Z,79.67
2018-03-27T02:08:14.064Z,79.83
2018-03-27T02:10:41.099Z,79.93
2018-03-27T02:13:14.334Z,80.36
2018-03-27T02:15:47.278Z,80.56
2018-03-27T02:18:20.380Z,80.94
2018-03-27T02:20:53.451Z,81.26
2018-03-27T02:23:22.155Z,81.45
2018-03-27T02:25:49.743Z,81.42
2018-03-27T02:28:17.328Z,81.26
2018-03-27T02:30:44.980Z,81.05
2018-03-27T02:33:12.570Z,80.98
2018-03-27T02:35:40.162Z,80.71
2018-03-27T02:38:08.046Z,80.47
2018-03-27T02:40:35.693Z,80.59
2018-03-27T02:43:03.295Z,79.17
2018-03-27T02:45:31.004Z,78.80
2018-03-27T02:47:58.672Z,79.20
2018-03-27T02:50:26.631Z,78.08
2018-03-27T02:52:54.264Z,78.36
2018-03-27T02:55:21.919Z,78.00
2018-03-27T02:57:49.531Z,78.15
2018-03-27T03:00:17.275Z,77.92
2018-03-27T03:02:44.863Z,77.71
2018-03-27T03:05:12.448Z,77.97
2018-03-27T03:07:40.088Z,78.39
2018-03-27T03:10:08.639Z,78.49
2018-03-27T03:12:36.216Z,77.79
2018-03-27T03:15:03.905Z,77.89
2018-03-27T03:17:31.537Z,78.17
2018-03-27T03:19:59.107Z,77.75
2018-03-27T03:22:26.733Z,77.70
2018-03-27T03:24:54.317Z,78.00
2018-03-27T03:27:21.889Z,78.16
2018-03-27T03:29:49.522Z,78.17
2018-03-27T03:32:17.093Z,77.68
2018-03-27T03:34:44.698Z,77.48
2018-03-27T03:37:12.529Z,77.22
2018-03-27T03:39:40.164Z,77.40
2018-03-27T03:42:07.749Z,77.42
2018-03-27T03:44:35.441Z,77.67
2018-03-27T03:47:03.037Z,77.35
2018-03-27T03:49:30.700Z,77.74
2018-03-27T03:51:58.329Z,77.06
2018-03-27T03:54:25.908Z,76.93
2018-03-27T03:56:53.485Z,77.12
2018-03-27T03:59:21.113Z,76.89
2018-03-27T04:01:49.146Z,76.90
2018-03-27T04:04:16.722Z,76.42
2018-03-27T04:06:44.417Z,76.70
2018-03-27T04:09:11.993Z,76.72
2018-03-27T04:11:39.571Z,76.85
2018-03-27T04:14:07.469Z,76.53
2018-03-27T04:16:35.047Z,76.80
2018-03-27T04:19:02.637Z,77.18
2018-03-27T04:21:30.272Z,77.43
2018-03-27T04:23:57.849Z,77.51
2018-03-27T04:26:25.432Z,77.65
2018-03-27T04:28:53.077Z,77.87
2018-03-27T04:31:20.655Z,78.07
2018-03-27T04:33:48.252Z,78.33
2018-03-27T04:36:15.889Z,78.12
2018-03-27T04:38:43.541Z,78.87
2018-03-27T04:41:11.142Z,78.99
2018-03-27T04:43:38.831Z,79.01
2018-03-27T04:46:06.407Z,78.66
2018-03-27T04:48:34.046Z,78.45
2018-03-27T04:51:02.345Z,78.40
2018-03-27T04:53:29.984Z,78.19
2018-03-27T04:55:57.567Z,78.09
2018-03-27T04:58:25.298Z,77.17
2018-03-27T05:00:52.900Z,76.89
2018-03-27T05:03:20.479Z,76.82
2018-03-27T05:05:48.179Z,77.08
2018-03-27T05:08:15.817Z,75.71
2018-03-27T05:10:44.458Z,75.60
2018-03-27T05:13:12.108Z,76.07
2018-03-27T05:15:39.697Z,76.56
2018-03-27T05:18:07.290Z,76.63
2018-03-27T05:20:34.941Z,75.93
2018-03-27T05:23:02.592Z,75.60
2018-03-27T05:25:30.219Z,75.41
2018-03-27T05:27:58.080Z,76.30
2018-03-27T05:30:25.665Z,77.42
2018-03-27T05:32:53.327Z,78.15
2018-03-27T05:35:20.933Z,78.10
2018-03-27T05:37:48.528Z,78.26
2018-03-27T05:40:16.119Z,77.32
2018-03-27T05:42:43.755Z,77.22
2018-03-27T05:45:11.684Z,77.59
2018-03-27T05:47:39.272Z,76.88
2018-03-27T05:50:06.921Z,77.07
2018-03-27T05:52:34.669Z,76.78
2018-03-27T05:55:02.348Z,76.37
2018-03-27T05:57:30.080Z,75.79
2018-03-27T05:59:57.701Z,75.50
2018-03-27T06:02:25.349Z,74.28
2018-03-27T06:04:53.245Z,74.82
2018-03-27T06:07:20.849Z,74.82
2018-03-27T06:09:48.521Z,74.78
2018-03-27T06:12:16.178Z,75.48
2018-03-27T06:14:43.838Z,75.43
2018-03-27T06:17:11.483Z,75.36
2018-03-27T06:19:39.115Z,74.94
2018-03-27T06:22:06.708Z,74.26
2018-03-27T06:24:34.375Z,74.13
2018-03-27T06:27:02.127Z,75.52
2018-03-27T06:29:29.708Z,74.27
2018-03-27T06:31:57.320Z,74.80
2018-03-27T06:34:24.974Z,75.59
2018-03-27T06:36:52.565Z,77.07
2018-03-27T06:39:20.192Z,78.26
2018-03-27T06:41:47.958Z,79.17
2018-03-27T06:44:15.602Z,78.96
2018-03-27T06:46:43.196Z,78.77
2018-03-27T06:49:10.878Z,79.45
2018-03-27T06:51:39.669Z,79.62
2018-03-27T06:54:08.897Z,79.25
2018-03-27T06:56:36.565Z,77.94
2018-03-27T06:59:04.278Z,78.91
2018-03-27T07:01:31.852Z,79.63
2018-03-27T07:03:59.541Z,79.91
2018-03-27T07:06:27.161Z,78.61
2018-03-27T07:08:54.836Z,78.99
2018-03-27T07:11:22.864Z,79.43
2018-03-27T07:13:50.831Z,79.48
2018-03-27T07:16:18.429Z,79.65
2018-03-27T07:18:46.060Z,78.84
2018-03-27T07:21:13.737Z,78.59
2018-03-27T07:23:41.338Z,77.78
2018-03-27T07:26:09.014Z,77.36
2018-03-27T07:28:36.685Z,77.51
2018-03-27T07:31:04.310Z,79.04
2018-03-27T07:33:32.413Z,76.34
2018-03-27T07:36:00.017Z,76.23
2018-03-27T07:38:27.618Z,76.67
2018-03-27T07:40:55.276Z,76.83
2018-03-27T07:43:33.513Z,77.15
2018-03-27T07:46:02.441Z,77.18
2018-03-27T07:48:36.785Z,77.29
2018-03-27T07:51:04.997Z,76.92
2018-03-27T07:53:32.598Z,78.45
2018-03-27T07:56:01.423Z,78.73
2018-03-27T07:58:29.094Z,79.10
2018-03-27T08:00:56.689Z,77.55
2018-03-27T08:03:24.348Z,77.35
2018-03-27T08:05:52.022Z,76.52
2018-03-27T08:08:19.705Z,77.58
2018-03-27T08:10:47.300Z,77.83
2018-03-27T08:13:15.226Z,77.82
2018-03-27T08:15:42.825Z,77.39
2018-03-27T08:18:10.420Z,76.96
2018-03-27T08:20:38.060Z,77.75
2018-03-27T08:23:05.648Z,76.34
2018-03-27T08:25:33.280Z,76.13
2018-03-27T08:28:00.918Z,76.87
2018-03-27T08:30:28.534Z,76.54
2018-03-27T08:32:56.135Z,76.48
2018-03-27T08:35:23.856Z,74.94
2018-03-27T08:37:51.448Z,75.47
2018-03-27T08:40:19.054Z,76.40
2018-03-27T08:42:46.696Z,75.08
2018-03-27T08:45:14.292Z,75.63
2018-03-27T08:47:41.889Z,74.38
2018-03-27T08:50:09.780Z,73.60
2018-03-27T08:52:37.377Z,74.08
2018-03-27T08:55:05.060Z,74.11
2018-03-27T08:57:32.860Z,74.72
2018-03-27T09:00:00.469Z,74.98
2018-03-27T09:02:28.059Z,75.05
2018-03-27T09:04:55.702Z,74.73
2018-03-27T09:07:23.279Z,75.07
2018-03-27T09:09:50.868Z,75.34
2018-03-27T09:12:18.558Z,74.12
2018-03-27T09:14:46.154Z,74.63
2018-03-27T09:17:13.746Z,73.72
2018-03-27T09:19:41.392Z,74.95
2018-03-27T09:22:09.012Z,74.76
2018-03-27T09:24:36.658Z,74.38
2018-03-27T09:27:04.309Z,72.79
2018-03-27T09:29:31.961Z,72.74
2018-03-27T09:31:59.606Z,72.80
2018-03-27T09:34:27.259Z,71.91
2018-03-27T09:36:54.848Z,72.34
2018-03-27T09:39:25.028Z,74.06
2018-03-27T09:41:54.495Z,73.53
2018-03-27T09:44:24.409Z,73.59
2018-03-27T09:46:54.682Z,74.11
2018-03-27T09:49:28.953Z,74.78
2018-03-27T09:51:58.534Z,74.87
2018-03-27T09:54:30.406Z,73.08
2018-03-27T09:59:52.617Z,72.82
2018-03-27T10:05:12.232Z,71.92
2018-03-27T10:07:39.859Z,72.10
2018-03-27T10:10:07.476Z,71.22
2018-03-27T10:12:35.361Z,67.96
2018-03-27T10:15:03.613Z,72.00
2018-03-27T10:17:31.220Z,74.34
2018-03-27T10:19:58.899Z,72.18
2018-03-27T10:22:26.506Z,72.17
2018-03-27T10:24:54.128Z,71.47
2018-03-27T10:27:21.861Z,70.90
2018-03-27T10:29:49.459Z,71.62
2018-03-27T10:32:17.084Z,73.97
2018-03-27T10:34:44.727Z,75.71
2018-03-27T10:37:12.408Z,73.43
2018-03-27T10:39:40.816Z,74.01
2018-03-27T10:42:08.471Z,74.21
2018-03-27T10:44:36.100Z,74.13
2018-03-27T10:47:03.726Z,70.75
2018-03-27T10:49:31.378Z,71.22
2018-03-27T10:51:59.008Z,71.06
2018-03-27T10:54:26.630Z,70.39
2018-03-27T10:56:54.293Z,69.55
2018-03-27T10:59:22.012Z,69.50
2018-03-27T11:01:49.745Z,66.30
2018-03-27T11:04:17.514Z,68.56
2018-03-27T11:06:45.204Z,66.98
2018-03-27T11:09:12.822Z,66.41
2018-03-27T11:11:40.509Z,65.37
2018-03-27T11:14:08.177Z,64.35
2018-03-27T11:16:35.823Z,65.44
2018-03-27T11:19:03.500Z,59.81
2018-03-27T11:21:31.134Z,62.62
2018-03-27T11:23:58.750Z,61.84
2018-03-27T11:26:26.469Z,62.51
2018-03-27T11:28:54.088Z,61.31
2018-03-27T11:31:21.736Z,63.31
2018-03-27T11:33:49.414Z,62.60
2018-03-27T11:36:17.040Z,61.92
2018-03-27T11:38:44.666Z,59.76
2018-03-27T11:41:12.349Z,58.88
2018-03-27T11:43:39.957Z,58.90
2018-03-27T11:46:07.559Z,58.14
2018-03-27T11:48:35.203Z,57.34
2018-03-27T11:51:03.666Z,57.09
2018-03-27T11:53:31.269Z,57.47
2018-03-27T11:55:58.921Z,58.84
2018-03-27T11:58:26.558Z,57.65
2018-03-27T12:00:54.187Z,59.23
2018-03-27T12:03:22.098Z,58.99
2018-03-27T12:05:49.742Z,59.64
2018-03-27T12:08:17.358Z,61.24
2018-03-27T12:10:45.122Z,61.58
2018-03-27T12:13:12.738Z,62.59
2018-03-27T12:15:40.359Z,62.39
2018-03-27T12:18:08.014Z,62.57
2018-03-27T12:20:35.640Z,61.84
2018-03-27T12:23:03.941Z,62.37
2018-03-27T12:25:31.626Z,62.89
2018-03-27T12:27:59.263Z,63.75
2018-03-27T12:30:26.931Z,64.30
2018-03-27T12:32:54.646Z,64.36
2018-03-27T12:35:22.267Z,63.50
2018-03-27T12:37:49.851Z,63.41
2018-03-27T12:40:17.494Z,62.96
2018-03-27T12:42:45.183Z,63.68
2018-03-27T12:45:12.940Z,64.15
2018-03-27T12:47:40.618Z,65.36
2018-03-27T12:50:08.224Z,66.13
2018-03-27T12:52:35.820Z,66.76
2018-03-27T12:55:03.526Z,67.48
2018-03-27T12:57:31.137Z,68.74
2018-03-27T12:59:58.814Z,69.02
2018-03-27T13:02:26.604Z,70.82
2018-03-27T13:04:54.448Z,71.69
2018-03-27T13:07:22.062Z,72.36
2018-03-27T13:09:50.071Z,72.85
2018-03-27T13:12:18.383Z,74.33
2018-03-27T13:14:46.012Z,74.32
2018-03-27T13:17:13.872Z,74.03
2018-03-27T13:19:41.524Z,74.39
2018-03-27T13:22:09.192Z,74.50
2018-03-27T13:24:36.866Z,76.00
2018-03-27T13:27:04.543Z,76.35
2018-03-27T13:29:32.943Z,74.03
2018-03-27T13:32:00.574Z,75.27
2018-03-27T13:34:31.111Z,75.19
2018-03-27T13:36:58.785Z,74.45
2018-03-27T13:39:26.451Z,73.44
2018-03-27T13:41:54.038Z,75.04
2018-03-27T13:44:21.645Z,73.87
2018-03-27T13:46:49.408Z,73.42
2018-03-27T13:49:17.020Z,71.96
2018-03-27T13:54:11.565Z,71.27
2018-03-27T13:56:39.180Z,72.59
2018-03-27T13:59:06.794Z,72.89
2018-03-27T14:01:34.523Z,72.74
2018-03-27T14:04:02.119Z,73.58
2018-03-27T14:06:29.852Z,72.16
2018-03-27T14:08:57.494Z,72.70
2018-03-27T14:11:25.075Z,71.85
2018-03-27T14:13:52.689Z,70.24
2018-03-27T14:16:20.337Z,69.86
2018-03-27T14:18:47.964Z,69.08
2018-03-27T14:21:15.633Z,69.43
2018-03-27T14:23:43.343Z,70.03
2018-03-27T14:26:10.940Z,69.59
2018-03-27T14:28:38.556Z,70.04
2018-03-27T14:31:06.420Z,69.88
2018-03-27T14:33:34.102Z,70.29
2018-03-27T14:36:01.719Z,69.52
2018-03-27T14:38:29.403Z,70.26
2018-03-27T14:40:57.105Z,71.39
2018-03-27T14:43:25.338Z,71.16
2018-03-27T14:45:53.324Z,71.06
2018-03-27T14:48:20.984Z,71.26
2018-03-27T14:50:48.649Z,70.93
2018-03-27T14:53:16.378Z,72.39
2018-03-27T14:55:44.137Z,73.66
2018-03-27T14:58:11.744Z,72.21
2018-03-27T15:00:39.379Z,72.81
2018-03-27T15:03:06.989Z,72.55
2018-03-27T15:05:34.602Z,73.45
2018-03-27T15:08:02.313Z,72.76
2018-03-27T15:10:30.007Z,72.76
2018-03-27T15:12:57.597Z,72.63
2018-03-27T15:15:25.315Z,73.57
2018-03-27T15:17:52.914Z,74.12
2018-03-27T15:20:20.575Z,73.88
2018-03-27T15:22:48.260Z,74.26
2018-03-27T15:25:15.941Z,75.23
2018-03-27T15:27:43.537Z,74.84
2018-03-27T15:30:11.483Z,74.31
2018-03-27T15:32:39.099Z,74.35
2018-03-27T15:35:06.715Z,73.94
2018-03-27T15:37:34.508Z,74.59
2018-03-27T15:40:02.158Z,74.44
2018-03-27T15:42:29.743Z,73.75
2018-03-27T15:44:57.910Z,72.79
2018-03-27T15:47:25.499Z,73.56
2018-03-27T15:49:53.084Z,72.39
2018-03-27T15:52:20.721Z,71.91
2018-03-27T15:54:48.347Z,71.54
2018-03-27T15:57:15.948Z,71.80
2018-03-27T15:59:43.656Z,71.69
2018-03-27T16:02:11.279Z,71.54
2018-03-27T16:04:38.938Z,70.66
2018-03-27T16:07:06.785Z,70.23
2018-03-27T16:09:34.715Z,70.35
2018-03-27T16:12:02.396Z,70.10
2018-03-27T16:14:30.168Z,70.51
2018-03-27T16:16:57.988Z,70.15
2018-03-27T16:19:25.722Z,69.98
2018-03-27T16:21:53.646Z,70.06
2018-03-27T16:24:22.252Z,70.10
2018-03-27T16:26:50.303Z,70.14
2018-03-27T16:29:18.186Z,70.28
2018-03-27T16:31:46.610Z,70.52
2018-03-27T16:34:14.365Z,69.83
2018-03-27T16:36:42.213Z,70.46
2018-03-27T16:39:10.102Z,70.84
2018-03-27T16:41:38.015Z,70.62
2018-03-27T16:44:05.960Z,70.16
2018-03-27T16:46:33.845Z,69.84
2018-03-27T16:49:01.798Z,70.92
2018-03-27T16:51:29.734Z,71.32
2018-03-27T16:53:57.619Z,70.81
2018-03-27T16:56:25.504Z,71.17
2018-03-27T16:58:53.483Z,70.69
2018-03-27T17:01:21.348Z,70.44
2018-03-27T17:03:49.230Z,70.38
2018-03-27T17:06:17.181Z,69.75
2018-03-27T17:08:45.084Z,70.70
2018-03-27T17:13:50.286Z,69.71
2018-03-27T17:16:18.155Z,68.25
2018-03-27T17:18:45.978Z,68.54
2018-03-27T17:21:13.894Z,69.87
2018-03-27T17:23:41.775Z,71.06
2018-03-27T17:26:09.662Z,71.79
2018-03-27T17:28:42.816Z,72.79
2018-03-27T17:31:10.698Z,73.52
2018-03-27T17:33:38.574Z,74.35
2018-03-27T17:36:06.529Z,75.00
2018-03-27T17:38:34.413Z,74.90
2018-03-27T17:41:02.283Z,76.19
2018-03-27T17:43:31.481Z,77.83
2018-03-27T17:45:59.478Z,78.71
2018-03-27T17:51:10.802Z,79.05
2018-03-27T17:53:38.976Z,79.49
2018-03-27T17:56:06.905Z,79.97
2018-03-27T17:58:34.931Z,80.72
2018-03-27T18:01:02.928Z,80.91
2018-03-27T18:03:31.930Z,81.18
2018-03-27T18:05:59.829Z,80.73
2018-03-27T18:08:27.760Z,81.40
2018-03-27T18:10:55.644Z,81.93
2018-03-27T18:13:24.217Z,82.31
2018-03-27T18:15:52.399Z,82.91
2018-03-27T18:18:20.267Z,82.90
2018-03-27T18:20:49.142Z,83.18
2018-03-27T18:23:17.096Z,82.73
2018-03-27T18:25:45.908Z,83.08
2018-03-27T18:28:13.773Z,82.87
2018-03-27T18:30:41.729Z,82.72
2018-03-27T18:33:09.711Z,82.20
2018-03-27T18:35:37.603Z,82.77
2018-03-27T18:38:05.585Z,82.83
2018-03-27T18:40:33.470Z,83.10
2018-03-27T18:43:01.349Z,82.90
2018-03-27T18:45:29.280Z,83.80
2018-03-27T18:47:57.168Z,83.69
2018-03-27T18:50:25.118Z,83.89
2018-03-27T18:52:53.052Z,84.19
2018-03-27T18:55:20.937Z,84.21
2018-03-27T18:57:48.816Z,84.73
2018-03-27T19:00:16.818Z,84.85
2018-03-27T19:02:44.710Z,84.95
2018-03-27T19:05:12.621Z,85.30
2018-03-27T19:07:41.697Z,84.75
2018-03-27T19:10:09.574Z,84.60
2018-03-27T19:12:37.448Z,84.80
2018-03-27T19:15:05.403Z,84.58
2018-03-27T19:17:33.387Z,84.60
2018-03-27T19:20:01.354Z,84.58
2018-03-27T19:22:29.375Z,84.63
2018-03-27T19:24:57.256Z,85.13
2018-03-27T19:27:25.325Z,85.37
2018-03-27T19:29:53.271Z,85.33
2018-03-27T19:32:21.145Z,85.28
2018-03-27T19:34:49.012Z,85.24
2018-03-27T19:37:17.007Z,85.32
2018-03-27T19:39:44.890Z,84.55
2018-03-27T19:42:12.765Z,84.08
2018-03-27T19:44:40.899Z,84.03
2018-03-27T19:47:08.790Z,83.54
2018-03-27T19:49:37.844Z,83.82
2018-03-27T19:52:09.562Z,84.53
2018-03-27T19:54:37.484Z,84.16
2018-03-27T19:57:05.368Z,84.94
2018-03-27T19:59:33.535Z,85.39
2018-03-27T20:02:01.495Z,85.88
2018-03-27T20:04:29.369Z,85.67
2018-03-27T20:06:57.901Z,86.46
2018-03-27T20:09:25.808Z,87.08
2018-03-27T20:11:53.675Z,86.64
2018-03-27T20:14:21.663Z,86.64
2018-03-27T20:16:49.533Z,86.58
2018-03-27T20:19:17.454Z,86.58
2018-03-27T20:21:45.367Z,86.05
2018-03-27T20:24:13.237Z,85.55
2018-03-27T20:26:41.100Z,85.22
2018-03-27T20:29:09.036Z,85.27
2018-03-27T20:31:36.908Z,85.20
2018-03-27T20:34:04.848Z,84.91
2018-03-27T20:36:33.214Z,84.90
2018-03-27T20:39:01.080Z,83.94
2018-03-27T20:41:29.001Z,84.08
2018-03-27T20:43:56.917Z,83.86
2018-03-27T20:46:24.780Z,83.56
2018-03-27T20:48:53.590Z,83.86
2018-03-27T20:51:21.573Z,84.20
2018-03-27T20:53:49.415Z,84.65
2018-03-27T20:56:17.278Z,84.77
2018-03-27T20:58:45.182Z,84.36
2018-03-27T21:01:13.015Z,84.66
2018-03-27T21:03:40.857Z,84.05
2018-03-27T21:06:08.785Z,83.96
2018-03-27T21:08:36.615Z,84.22
2018-03-27T21:11:04.489Z,84.20
2018-03-27T21:13:32.754Z,83.90
2018-03-27T21:16:00.584Z,83.87
2018-03-27T21:18:28.414Z,84.05
2018-03-27T21:20:56.371Z,84.34
2018-03-27T21:23:24.174Z,84.05
2018-03-27T21:25:51.860Z,83.82
2018-03-27T21:28:19.641Z,83.40
2018-03-27T21:30:47.199Z,83.37
2018-03-27T21:33:14.801Z,83.40
2018-03-27T21:35:42.411Z,83.85
2018-03-27T21:38:09.965Z,83.25
2018-03-27T21:40:37.509Z,83.15
2018-03-27T21:43:05.428Z,83.23
2018-03-27T21:45:33.016Z,83.07
2018-03-27T21:48:00.568Z,83.11
2018-03-27T21:50:28.404Z,83.27
2018-03-27T21:52:55.979Z,83.36
2018-03-27T21:55:23.542Z,83.47
2018-03-27T21:57:51.205Z,83.70
2018-03-27T22:00:18.850Z,83.97
2018-03-27T22:02:46.417Z,83.72
2018-03-27T22:05:14.020Z,83.77
2018-03-27T22:07:41.582Z,84.29
2018-03-27T22:10:09.138Z,85.29
2018-03-27T22:12:36.801Z,85.56
2018-03-27T22:15:04.442Z,85.68
2018-03-27T22:17:32.000Z,85.77
2018-03-27T22:20:00.544Z,85.55
2018-03-27T22:22:28.339Z,85.60
2018-03-27T22:24:55.884Z,84.96
2018-03-27T22:27:23.499Z,84.75
2018-03-27T22:29:51.339Z,85.17
2018-03-27T22:32:18.889Z,85.41
2018-03-27T22:34:46.706Z,85.27
2018-03-27T22:37:14.269Z,85.73
2018-03-27T22:39:41.831Z,85.93
2018-03-27T22:42:09.460Z,85.94
2018-03-27T22:44:37.015Z,85.85
2018-03-27T22:47:04.639Z,85.83
2018-03-27T22:49:32.239Z,85.90
2018-03-27T22:52:00.404Z,85.94
2018-03-27T22:54:28.975Z,84.98
2018-03-27T22:56:57.006Z,85.01
2018-03-27T22:59:24.640Z,84.61
2018-03-27T23:01:52.198Z,84.66
2018-03-27T23:04:19.841Z,84.49
2018-03-27T23:06:47.462Z,84.64
2018-03-27T23:09:15.020Z,84.68
2018-03-27T23:11:42.637Z,84.47
2018-03-27T23:14:10.198Z,84.68
2018-03-27T23:16:37.803Z,84.82
2018-03-27T23:19:05.508Z,84.85
2018-03-27T23:21:33.065Z,84.88
2018-03-27T23:24:00.781Z,84.75
2018-03-27T23:26:29.256Z,84.69
2018-03-27T23:28:56.873Z,84.60
2018-03-27T23:31:24.437Z,84.29
2018-03-27T23:33:53.173Z,84.49
2018-03-27T23:36:20.749Z,84.33
2018-03-27T23:38:48.298Z,84.33
2018-03-27T23:41:15.937Z,84.45
2018-03-27T23:43:43.490Z,84.44
2018-03-27T23:46:14.752Z,84.07
2018-03-27T23:48:43.830Z,83.67
2018-03-27T23:51:11.399Z,83.54
2018-03-27T23:53:39.026Z,83.19
2018-03-27T23:56:06.647Z,83.09
2018-03-27T23:58:34.201Z,82.92
